createdAt,value
2023-12-14T00:01:49.533Z,97266.41
2023-12-14T00:04:17.279Z,97265.59
2023-12-14T00:06:45.054Z,97264.52
2023-12-14T00:09:12.602Z,97265.20
2023-12-14T00:11:40.364Z,97271.38
2023-12-14T00:14:08.283Z,97273.72
2023-12-14T00:16:35.880Z,97276.69
2023-12-14T00:19:03.581Z,97283.24
2023-12-14T00:21:31.265Z,97291.77
2023-12-14T00:23:58.815Z,97297.13
2023-12-14T00:26:26.327Z,97298.14
2023-12-14T00:29:01.231Z,97306.27
2023-12-14T00:31:29.993Z,97306.59
2023-12-14T00:33:57.660Z,97313.87
2023-12-14T00:36:25.249Z,97319.14
2023-12-14T00:38:52.837Z,97325.06
2023-12-14T00:41:20.498Z,97327.50
2023-12-14T00:43:48.121Z,97333.80
2023-12-14T00:46:15.641Z,97336.89
2023-12-14T00:48:43.597Z,97336.81
2023-12-14T00:51:11.153Z,97341.23
2023-12-14T00:53:38.683Z,97344.00
2023-12-14T00:56:06.225Z,97350.05
2023-12-14T00:58:33.835Z,97350.24
2023-12-14T01:01:01.500Z,97353.74
2023-12-14T01:03:29.751Z,97351.76
2023-12-14T01:05:57.868Z,97353.17
2023-12-14T01:08:25.452Z,97355.34
2023-12-14T01:10:53.100Z,97356.35
2023-12-14T01:13:20.631Z,97357.24
2023-12-14T01:15:48.174Z,97361.70
2023-12-14T01:18:15.837Z,97366.03
2023-12-14T01:20:43.415Z,97365.39
2023-12-14T01:23:11.316Z,97366.32
2023-12-14T01:25:38.911Z,97369.17
2023-12-14T01:28:06.641Z,97364.59
2023-12-14T01:30:34.257Z,97361.25
2023-12-14T01:33:01.859Z,97364.39
2023-12-14T01:35:29.465Z,97366.05
2023-12-14T01:37:57.098Z,97365.77
2023-12-14T01:40:24.677Z,97364.39
2023-12-14T01:42:52.237Z,97363.38
2023-12-14T01:45:19.814Z,97360.07
2023-12-14T01:47:47.862Z,97358.98
2023-12-14T01:50:15.540Z,97358.65
2023-12-14T01:52:43.187Z,97359.39
2023-12-14T01:55:12.035Z,97359.10
2023-12-14T01:57:39.595Z,97359.92
2023-12-14T02:00:07.238Z,97361.41
2023-12-14T02:02:34.924Z,97360.40
2023-12-14T02:05:02.570Z,97357.92
2023-12-14T02:07:30.223Z,97359.36
2023-12-14T02:09:57.843Z,97361.51
2023-12-14T02:12:25.369Z,97355.48
2023-12-14T02:14:53.011Z,97353.96
2023-12-14T02:17:20.668Z,97356.95
2023-12-14T02:19:48.266Z,97360.38
2023-12-14T02:22:15.898Z,97353.05
2023-12-14T02:24:43.470Z,97355.88
2023-12-14T02:27:11.137Z,97354.63
2023-12-14T02:29:38.731Z,97358.96
2023-12-14T02:32:06.813Z,97358.54
2023-12-14T02:34:34.488Z,97361.81
2023-12-14T02:37:02.060Z,97368.13
2023-12-14T02:39:29.613Z,97371.27
2023-12-14T02:41:57.197Z,97370.33
2023-12-14T02:44:25.393Z,97379.55
2023-12-14T02:46:53.074Z,97383.98
2023-12-14T02:49:20.641Z,97386.08
2023-12-14T02:51:48.211Z,97389.88
2023-12-14T02:54:15.701Z,97392.63
2023-12-14T02:56:43.334Z,97389.36
2023-12-14T02:59:10.986Z,97389.41
2023-12-14T03:01:38.654Z,97385.77
2023-12-14T03:04:06.249Z,97388.09
2023-12-14T03:06:33.883Z,97390.73
2023-12-14T03:09:01.439Z,97390.30
2023-12-14T03:11:29.000Z,97395.27
2023-12-14T03:13:56.719Z,97402.70
2023-12-14T03:16:24.286Z,97403.84
2023-12-14T03:18:51.970Z,97405.75
2023-12-14T03:21:19.533Z,97411.73
2023-12-14T03:23:47.579Z,97413.45
2023-12-14T03:26:15.323Z,97420.54
2023-12-14T03:28:42.914Z,97416.89
2023-12-14T03:31:10.532Z,97419.98
2023-12-14T03:33:38.253Z,97428.54
2023-12-14T03:36:05.997Z,97430.80
2023-12-14T03:38:34.147Z,97434.58
2023-12-14T03:41:01.818Z,97438.08
2023-12-14T03:43:29.430Z,97443.41
2023-12-14T03:45:56.995Z,97448.39
2023-12-14T03:48:24.832Z,97453.66
2023-12-14T03:50:52.735Z,97456.06
2023-12-14T03:53:20.305Z,97459.88
2023-12-14T03:55:48.065Z,97463.52
2023-12-14T03:58:15.885Z,97465.89
2023-12-14T04:00:43.721Z,97465.88
2023-12-14T04:03:11.448Z,97473.45
2023-12-14T04:05:39.251Z,97478.60
2023-12-14T04:08:06.912Z,97482.48
2023-12-14T04:10:34.500Z,97486.19
2023-12-14T04:13:02.046Z,97487.38
2023-12-14T04:15:29.719Z,97486.58
2023-12-14T04:17:57.351Z,97492.02
2023-12-14T04:20:24.929Z,97496.98
2023-12-14T04:22:52.528Z,97503.30
2023-12-14T04:25:20.126Z,97508.17
2023-12-14T04:27:47.707Z,97507.52
2023-12-14T04:30:15.295Z,97509.48
2023-12-14T04:32:42.911Z,97512.46
2023-12-14T04:35:10.565Z,97516.48
2023-12-14T04:37:38.367Z,97520.08
2023-12-14T04:40:05.980Z,97524.08
2023-12-14T04:42:33.867Z,97526.98
2023-12-14T04:45:01.606Z,97531.98
2023-12-14T04:47:29.208Z,97533.27
2023-12-14T04:49:56.756Z,97536.88
2023-12-14T04:52:24.333Z,97535.89
2023-12-14T04:54:51.962Z,97535.70
2023-12-14T04:57:19.470Z,97538.09
2023-12-14T04:59:47.019Z,97539.73
2023-12-14T05:02:14.679Z,97545.11
2023-12-14T05:04:42.303Z,97543.45
2023-12-14T05:07:09.895Z,97551.55
2023-12-14T05:09:37.436Z,97557.50
2023-12-14T05:12:04.987Z,97560.00
2023-12-14T05:14:32.591Z,97564.37
2023-12-14T05:17:00.252Z,97567.52
2023-12-14T05:19:28.008Z,97572.38
2023-12-14T05:21:55.857Z,97575.89
2023-12-14T05:24:23.420Z,97580.23
2023-12-14T05:26:50.992Z,97576.79
2023-12-14T05:29:18.579Z,97579.11
2023-12-14T05:31:46.189Z,97585.86
2023-12-14T05:34:14.156Z,97591.77
2023-12-14T05:36:41.743Z,97591.09
2023-12-14T05:39:09.352Z,97597.13
2023-12-14T05:41:37.011Z,97597.48
2023-12-14T05:44:04.641Z,97604.00
2023-12-14T05:46:32.302Z,97605.13
2023-12-14T05:48:59.982Z,97610.27
2023-12-14T05:51:27.596Z,97615.77
2023-12-14T05:53:55.152Z,97614.28
2023-12-14T05:56:22.701Z,97623.55
2023-12-14T05:58:50.275Z,97623.64
2023-12-14T06:01:17.961Z,97622.64
2023-12-14T06:03:47.132Z,97629.11
2023-12-14T06:06:14.760Z,97634.20
2023-12-14T06:08:42.415Z,97636.52
2023-12-14T06:11:10.189Z,97636.52
2023-12-14T06:13:38.076Z,97641.09
2023-12-14T06:16:06.061Z,97639.98
2023-12-14T06:18:33.703Z,97648.00
2023-12-14T06:21:01.729Z,97653.27
2023-12-14T06:23:29.437Z,97650.76
2023-12-14T06:25:56.971Z,97657.21
2023-12-14T06:28:24.663Z,97658.03
2023-12-14T06:30:52.278Z,97666.57
2023-12-14T06:33:20.213Z,97671.56
2023-12-14T06:35:47.796Z,97667.92
2023-12-14T06:38:15.409Z,97677.45
2023-12-14T06:40:42.986Z,97678.18
2023-12-14T06:43:11.063Z,97684.61
2023-12-14T06:45:38.794Z,97685.45
2023-12-14T06:48:06.514Z,97692.76
2023-12-14T06:50:34.326Z,97696.40
2023-12-14T06:53:02.106Z,97701.27
2023-12-14T06:55:29.824Z,97704.39
2023-12-14T06:57:57.738Z,97703.70
2023-12-14T07:00:25.361Z,97703.71
2023-12-14T07:02:53.103Z,97706.14
2023-12-14T07:05:21.026Z,97710.41
2023-12-14T07:07:48.737Z,97710.63
2023-12-14T07:10:16.798Z,97711.64
2023-12-14T07:12:44.795Z,97711.74
2023-12-14T07:15:12.969Z,97710.11
2023-12-14T07:17:40.692Z,97707.60
2023-12-14T07:20:08.552Z,97718.39
2023-12-14T07:22:36.480Z,97726.29
2023-12-14T07:25:04.177Z,97733.00
2023-12-14T07:27:31.702Z,97736.55
2023-12-14T07:29:59.327Z,97739.09
2023-12-14T07:32:27.098Z,97742.25
2023-12-14T07:34:55.084Z,97743.34
2023-12-14T07:37:22.765Z,97748.96
2023-12-14T07:39:50.322Z,97752.36
2023-12-14T07:42:17.886Z,97755.48
2023-12-14T07:44:45.490Z,97763.75
2023-12-14T07:47:13.089Z,97770.11
2023-12-14T07:49:40.706Z,97772.85
2023-12-14T07:52:08.246Z,97783.98
2023-12-14T07:54:35.821Z,97788.70
2023-12-14T07:57:03.429Z,97794.75
2023-12-14T07:59:31.319Z,97794.23
2023-12-14T08:01:59.038Z,97794.88
2023-12-14T08:04:26.594Z,97798.20
2023-12-14T08:06:54.213Z,97799.07
2023-12-14T08:09:22.017Z,97805.80
2023-12-14T08:11:49.555Z,97806.27
2023-12-14T08:14:17.136Z,97809.44
2023-12-14T08:16:44.746Z,97811.64
2023-12-14T08:19:12.417Z,97817.52
2023-12-14T08:21:40.253Z,97818.95
2023-12-14T08:24:07.769Z,97821.11
2023-12-14T08:26:35.350Z,97826.11
2023-12-14T08:29:03.338Z,97828.58
2023-12-14T08:31:30.933Z,97833.36
2023-12-14T08:33:58.569Z,97836.60
2023-12-14T08:36:26.887Z,97833.57
2023-12-14T08:38:54.480Z,97836.36
2023-12-14T08:41:22.453Z,97835.64
2023-12-14T08:43:50.145Z,97841.23
2023-12-14T08:46:17.727Z,97849.17
2023-12-14T08:48:45.345Z,97853.92
2023-12-14T08:51:13.087Z,97857.19
2023-12-14T08:53:40.659Z,97860.00
2023-12-14T08:56:08.314Z,97859.81
2023-12-14T08:58:35.971Z,97869.88
2023-12-14T09:01:03.559Z,97871.21
2023-12-14T09:03:31.192Z,97878.58
2023-12-14T09:05:59.280Z,97883.88
2023-12-14T09:08:27.017Z,97883.73
2023-12-14T09:10:54.689Z,97892.73
2023-12-14T09:13:22.293Z,97890.06
2023-12-14T09:15:49.798Z,97891.20
2023-12-14T09:18:17.441Z,97897.02
2023-12-14T09:20:45.716Z,97894.88
2023-12-14T09:23:13.589Z,97899.37
2023-12-14T09:25:41.270Z,97903.19
2023-12-14T09:28:08.834Z,97908.43
2023-12-14T09:30:37.017Z,97910.10
2023-12-14T09:33:04.978Z,97906.42
2023-12-14T09:35:32.620Z,97904.61
2023-12-14T09:38:00.250Z,97905.57
2023-12-14T09:40:27.992Z,97907.48
2023-12-14T09:42:55.522Z,97909.93
2023-12-14T09:45:23.113Z,97918.40
2023-12-14T09:47:50.690Z,97916.21
2023-12-14T09:50:18.339Z,97917.02
2023-12-14T09:52:46.007Z,97921.77
2023-12-14T09:55:13.610Z,97927.33
2023-12-14T09:57:41.321Z,97926.08
2023-12-14T10:00:08.946Z,97928.95
2023-12-14T10:02:36.551Z,97930.77
2023-12-14T10:05:04.202Z,97929.95
2023-12-14T10:07:31.962Z,97932.56
2023-12-14T10:10:00.037Z,97931.95
2023-12-14T10:12:27.583Z,97938.19
2023-12-14T10:14:55.182Z,97941.08
2023-12-14T10:17:23.095Z,97940.56
2023-12-14T10:19:51.140Z,97943.23
2023-12-14T10:22:19.146Z,97944.66
2023-12-14T10:24:47.136Z,97949.75
2023-12-14T10:27:14.684Z,97950.70
2023-12-14T10:29:42.227Z,97946.11
2023-12-14T10:32:10.434Z,97947.88
2023-12-14T10:34:38.068Z,97949.42
2023-12-14T10:37:06.896Z,97949.20
2023-12-14T10:39:34.723Z,97947.85
2023-12-14T10:42:08.122Z,97949.63
2023-12-14T10:45:04.999Z,97955.83
2023-12-14T10:47:30.578Z,97958.36
2023-12-14T10:49:58.240Z,97964.61
2023-12-14T10:52:25.803Z,97961.45
2023-12-14T10:54:53.361Z,97970.23
2023-12-14T10:57:20.966Z,97970.73
2023-12-14T10:59:48.480Z,97971.71
2023-12-14T11:02:16.093Z,97975.81
2023-12-14T11:04:44.030Z,97977.77
2023-12-14T11:07:11.786Z,97984.27
2023-12-14T11:09:39.311Z,97982.20
2023-12-14T11:12:06.847Z,97990.11
2023-12-14T11:14:34.368Z,97992.84
2023-12-14T11:17:01.975Z,97995.14
2023-12-14T11:19:29.562Z,98000.64
2023-12-14T11:21:57.149Z,97998.45
2023-12-14T11:24:24.785Z,98004.77
2023-12-14T11:26:52.588Z,98006.18
2023-12-14T11:29:20.297Z,98008.30
2023-12-14T11:31:47.971Z,98008.54
2023-12-14T11:34:15.599Z,98009.91
2023-12-14T11:36:43.131Z,98011.55
2023-12-14T11:39:10.763Z,98010.98
2023-12-14T11:41:38.393Z,98012.30
2023-12-14T11:44:06.070Z,98009.45
2023-12-14T11:46:33.677Z,98013.30
2023-12-14T11:49:01.449Z,98012.31
2023-12-14T11:51:29.115Z,98016.31
2023-12-14T11:53:56.659Z,98016.98
2023-12-14T11:56:24.306Z,98020.00
2023-12-14T11:58:51.931Z,98017.54
2023-12-14T12:01:19.559Z,98019.65
2023-12-14T12:03:47.138Z,98021.80
2023-12-14T12:06:15.389Z,98025.61
2023-12-14T12:08:43.178Z,98028.37
2023-12-14T12:11:10.943Z,98029.83
2023-12-14T12:13:38.583Z,98028.92
2023-12-14T12:16:06.220Z,98030.09
2023-12-14T12:18:37.567Z,98036.55
2023-12-14T12:21:06.773Z,98043.15
2023-12-14T12:23:34.284Z,98046.50
2023-12-14T12:26:02.246Z,98047.98
2023-12-14T12:28:29.823Z,98050.77
2023-12-14T12:30:57.471Z,98053.75
2023-12-14T12:33:25.161Z,98050.77
2023-12-14T12:35:52.831Z,98045.30
2023-12-14T12:38:20.396Z,98049.46
2023-12-14T12:40:49.120Z,98048.02
2023-12-14T12:43:16.670Z,98047.35
2023-12-14T12:45:44.212Z,98056.14
2023-12-14T12:48:12.024Z,98060.55
2023-12-14T12:50:39.757Z,98063.89
2023-12-14T12:53:07.361Z,98069.15
2023-12-14T12:55:35.887Z,98070.91
2023-12-14T12:58:03.390Z,98072.46
2023-12-14T13:00:30.950Z,98076.95
2023-12-14T13:02:58.653Z,98081.63
2023-12-14T13:05:26.909Z,98086.89
2023-12-14T13:07:54.583Z,98089.30
2023-12-14T13:10:29.131Z,98092.80
2023-12-14T13:12:59.974Z,98103.07
2023-12-14T13:15:27.544Z,98109.30
2023-12-14T13:17:55.412Z,98110.60
2023-12-14T13:20:23.480Z,98110.54
2023-12-14T13:22:51.318Z,98109.39
2023-12-14T13:25:19.094Z,98114.40
2023-12-14T13:27:46.665Z,98114.05
2023-12-14T13:30:14.261Z,98122.30
2023-12-14T13:32:42.193Z,98129.55
2023-12-14T13:35:09.912Z,98137.36
2023-12-14T13:37:37.887Z,98147.03
2023-12-14T13:40:05.568Z,98154.95
2023-12-14T13:42:33.630Z,98158.73
2023-12-14T13:45:01.263Z,98159.59
2023-12-14T13:47:28.956Z,98168.40
2023-12-14T13:49:56.587Z,98172.64
2023-12-14T13:52:25.931Z,98179.06
2023-12-14T13:54:54.677Z,98181.48
2023-12-14T13:57:22.500Z,98183.41
2023-12-14T13:59:50.233Z,98187.20
2023-12-14T14:02:17.888Z,98194.79
2023-12-14T14:04:47.399Z,98198.54
2023-12-14T14:07:17.210Z,98199.90
2023-12-14T14:09:45.261Z,98210.55
2023-12-14T14:12:12.817Z,98212.78
2023-12-14T14:14:40.763Z,98218.36
2023-12-14T14:17:08.426Z,98219.11
2023-12-14T14:19:36.740Z,98222.35
2023-12-14T14:22:04.366Z,98229.36
2023-12-14T14:24:33.053Z,98225.58
2023-12-14T14:27:00.875Z,98225.13
2023-12-14T14:29:29.121Z,98230.91
2023-12-14T14:31:57.043Z,98238.20
2023-12-14T14:34:25.580Z,98240.25
2023-12-14T14:36:53.549Z,98244.77
2023-12-14T14:39:21.389Z,98247.48
2023-12-14T14:41:49.028Z,98252.23
2023-12-14T14:44:16.656Z,98256.02
2023-12-14T14:46:44.401Z,98258.21
2023-12-14T14:49:12.122Z,98265.60
2023-12-14T14:51:39.821Z,98270.00
2023-12-14T14:54:07.574Z,98268.77
2023-12-14T14:56:35.402Z,98270.21
2023-12-14T14:59:04.352Z,98270.87
2023-12-14T15:01:32.185Z,98272.90
2023-12-14T15:03:59.772Z,98275.65
2023-12-14T15:06:28.152Z,98278.48
2023-12-14T15:08:56.076Z,98284.48
2023-12-14T15:11:23.700Z,98285.52
2023-12-14T15:13:51.354Z,98287.11
2023-12-14T15:16:18.885Z,98292.15
2023-12-14T15:18:46.527Z,98293.81
2023-12-14T15:21:16.669Z,98295.48
2023-12-14T15:23:44.528Z,98296.63
2023-12-14T15:26:12.827Z,98299.80
2023-12-14T15:28:40.728Z,98304.71
2023-12-14T15:31:08.411Z,98305.48
2023-12-14T15:33:36.072Z,98306.59
2023-12-14T15:36:03.753Z,98316.02
2023-12-14T15:38:32.223Z,98319.57
2023-12-14T15:40:59.795Z,98323.11
2023-12-14T15:43:27.654Z,98326.38
2023-12-14T15:45:56.429Z,98327.45
2023-12-14T15:48:24.057Z,98331.21
2023-12-14T15:50:52.437Z,98338.48
2023-12-14T15:53:20.216Z,98341.80
2023-12-14T15:55:48.054Z,98338.27
2023-12-14T15:58:16.250Z,98346.91
2023-12-14T16:00:44.046Z,98347.23
2023-12-14T16:03:11.671Z,98348.91
2023-12-14T16:05:40.069Z,98351.63
2023-12-14T16:08:07.898Z,98351.08
2023-12-14T16:10:35.462Z,98359.79
2023-12-14T16:13:03.092Z,98361.20
2023-12-14T16:15:30.597Z,98366.33
2023-12-14T16:17:58.306Z,98377.67
2023-12-14T16:20:25.907Z,98379.33
2023-12-14T16:22:53.532Z,98386.39
2023-12-14T16:25:21.134Z,98389.65
2023-12-14T16:27:48.941Z,98395.34
2023-12-14T16:30:16.681Z,98395.96
2023-12-14T16:32:44.496Z,98397.86
2023-12-14T16:35:12.391Z,98401.73
2023-12-14T16:37:40.246Z,98406.43
2023-12-14T16:40:07.770Z,98410.56
2023-12-14T16:42:35.613Z,98410.27
2023-12-14T16:45:03.811Z,98418.02
2023-12-14T16:47:31.400Z,98424.55
2023-12-14T16:49:59.084Z,98426.80
2023-12-14T16:52:27.163Z,98426.35
2023-12-14T16:54:54.804Z,98427.64
2023-12-14T16:57:22.498Z,98435.27
2023-12-14T16:59:50.470Z,98443.21
2023-12-14T17:02:18.129Z,98444.20
2023-12-14T17:04:45.818Z,98445.66
2023-12-14T17:07:13.380Z,98453.30
2023-12-14T17:09:40.928Z,98455.19
2023-12-14T17:12:08.469Z,98459.48
2023-12-14T17:14:36.026Z,98464.86
2023-12-14T17:17:04.465Z,98472.68
2023-12-14T17:19:32.322Z,98471.98
2023-12-14T17:21:59.873Z,98477.42
2023-12-14T17:24:27.439Z,98473.61
2023-12-14T17:26:55.194Z,98480.27
2023-12-14T17:29:22.767Z,98483.14
2023-12-14T17:31:50.520Z,98486.49
2023-12-14T17:34:18.345Z,98488.77
2023-12-14T17:36:46.291Z,98493.86
2023-12-14T17:39:14.435Z,98500.39
2023-12-14T17:41:41.972Z,98501.20
2023-12-14T17:44:09.481Z,98504.13
2023-12-14T17:46:37.095Z,98506.69
2023-12-14T17:49:05.773Z,98512.60
2023-12-14T17:51:33.531Z,98516.11
2023-12-14T17:54:01.082Z,98519.81
2023-12-14T17:56:29.336Z,98518.27
2023-12-14T17:58:57.129Z,98522.13
2023-12-14T18:01:25.107Z,98524.85
2023-12-14T18:03:52.638Z,98531.10
2023-12-14T18:06:20.391Z,98535.12
2023-12-14T18:08:48.057Z,98540.23
2023-12-14T18:11:15.673Z,98539.42
2023-12-14T18:13:44.306Z,98552.07
2023-12-14T18:16:12.005Z,98550.43
2023-12-14T18:18:39.679Z,98556.24
2023-12-14T18:21:07.847Z,98559.15
2023-12-14T18:23:35.645Z,98562.29
2023-12-14T18:26:03.336Z,98564.44
2023-12-14T18:28:30.924Z,98569.38
2023-12-14T18:30:58.659Z,98574.73
2023-12-14T18:33:26.317Z,98571.58
2023-12-14T18:35:53.984Z,98572.70
2023-12-14T18:38:21.893Z,98579.31
2023-12-14T18:40:49.512Z,98581.42
2023-12-14T18:43:17.004Z,98589.36
2023-12-14T18:45:44.522Z,98593.28
2023-12-14T18:48:12.878Z,98597.10
2023-12-14T18:50:40.976Z,98597.48
2023-12-14T18:53:08.616Z,98608.89
2023-12-14T18:55:36.440Z,98608.75
2023-12-14T18:58:04.132Z,98613.49
2023-12-14T19:00:31.650Z,98614.80
2023-12-14T19:02:59.271Z,98620.55
2023-12-14T19:05:27.020Z,98624.44
2023-12-14T19:07:55.461Z,98624.70
2023-12-14T19:10:23.128Z,98633.49
2023-12-14T19:12:50.781Z,98641.02
2023-12-14T19:15:18.577Z,98645.27
2023-12-14T19:17:46.249Z,98651.52
2023-12-14T19:20:13.914Z,98654.14
2023-12-14T19:22:41.595Z,98657.55
2023-12-14T19:25:09.217Z,98660.80
2023-12-14T19:27:37.421Z,98668.46
2023-12-14T19:30:05.112Z,98671.25
2023-12-14T19:32:33.276Z,98672.80
2023-12-14T19:35:01.822Z,98676.64
2023-12-14T19:37:29.536Z,98679.68
2023-12-14T19:39:57.334Z,98683.48
2023-12-14T19:42:24.950Z,98685.85
2023-12-14T19:44:52.541Z,98692.63
2023-12-14T19:47:21.197Z,98691.73
2023-12-14T19:49:48.893Z,98693.09
2023-12-14T19:52:16.438Z,98696.54
2023-12-14T19:54:44.066Z,98702.98
2023-12-14T19:57:11.630Z,98707.31
2023-12-14T19:59:39.214Z,98713.49
2023-12-14T20:02:07.278Z,98715.77
2023-12-14T20:04:34.930Z,98717.31
2023-12-14T20:07:02.515Z,98722.69
2023-12-14T20:09:30.070Z,98725.73
2023-12-14T20:11:57.609Z,98727.55
2023-12-14T20:14:25.243Z,98728.76
2023-12-14T20:16:53.288Z,98732.94
2023-12-14T20:19:22.076Z,98731.31
2023-12-14T20:21:49.890Z,98739.30
2023-12-14T20:24:17.462Z,98740.51
2023-12-14T20:26:46.559Z,98740.93
2023-12-14T20:29:14.251Z,98743.19
2023-12-14T20:31:41.792Z,98745.95
2023-12-14T20:34:09.481Z,98751.13
2023-12-14T20:36:37.059Z,98754.33
2023-12-14T20:39:06.194Z,98759.61
2023-12-14T20:41:33.869Z,98760.34
2023-12-14T20:44:01.654Z,98764.85
2023-12-14T20:46:29.228Z,98768.08
2023-12-14T20:48:56.980Z,98770.53
2023-12-14T20:51:24.728Z,98772.89
2023-12-14T20:53:52.275Z,98773.05
2023-12-14T20:56:19.845Z,98780.15
2023-12-14T20:58:47.847Z,98786.63
2023-12-14T21:01:15.495Z,98791.23
2023-12-14T21:03:43.816Z,98794.84
2023-12-14T21:06:12.058Z,98797.90
2023-12-14T21:08:39.697Z,98800.45
2023-12-14T21:11:07.321Z,98810.80
2023-12-14T21:13:34.921Z,98810.96
2023-12-14T21:16:02.587Z,98815.00
2023-12-14T21:18:31.014Z,98815.23
2023-12-14T21:20:58.776Z,98823.33
2023-12-14T21:23:26.381Z,98827.35
2023-12-14T21:25:54.045Z,98829.39
2023-12-14T21:28:23.760Z,98827.23
2023-12-14T21:30:52.769Z,98829.46
2023-12-14T21:33:20.584Z,98832.52
2023-12-14T21:35:48.130Z,98832.73
2023-12-14T21:38:15.667Z,98833.29
2023-12-14T21:40:43.442Z,98837.98
2023-12-14T21:43:10.957Z,98845.38
2023-12-14T21:45:38.488Z,98846.66
2023-12-14T21:48:06.077Z,98845.77
2023-12-14T21:50:33.681Z,98850.23
2023-12-14T21:53:01.324Z,98857.48
2023-12-14T21:55:28.879Z,98862.61
2023-12-14T21:57:56.499Z,98862.42
2023-12-14T22:00:24.091Z,98868.77
2023-12-14T22:02:51.734Z,98875.48
2023-12-14T22:05:19.446Z,98876.93
2023-12-14T22:07:47.210Z,98877.43
2023-12-14T22:10:14.895Z,98873.44
2023-12-14T22:12:42.501Z,98880.96
2023-12-14T22:15:10.012Z,98889.13
2023-12-14T22:17:37.770Z,98891.58
2023-12-14T22:20:05.768Z,98902.35
2023-12-14T22:22:34.081Z,98906.69
2023-12-14T22:25:01.597Z,98908.52
2023-12-14T22:27:29.147Z,98914.81
2023-12-14T22:29:56.750Z,98916.66
2023-12-14T22:32:24.296Z,98928.73
2023-12-14T22:34:51.999Z,98930.63
2023-12-14T22:37:20.148Z,98935.20
2023-12-14T22:39:47.685Z,98938.25
2023-12-14T22:42:15.193Z,98948.67
2023-12-14T22:44:42.778Z,98950.90
2023-12-14T22:47:11.001Z,98945.80
2023-12-14T22:49:38.669Z,98957.73
2023-12-14T22:52:06.210Z,98958.81
2023-12-14T22:54:33.884Z,98960.42
2023-12-14T22:57:01.515Z,98973.89
2023-12-14T22:59:29.115Z,98979.21
2023-12-14T23:01:56.842Z,98978.14
2023-12-14T23:04:24.448Z,98978.32
2023-12-14T23:06:52.070Z,98981.88
2023-12-14T23:09:19.703Z,98981.27
2023-12-14T23:11:47.233Z,98984.57
2023-12-14T23:14:14.740Z,98989.09
2023-12-14T23:16:42.332Z,98991.92
2023-12-14T23:19:09.954Z,98995.86
2023-12-14T23:21:37.631Z,99005.86
2023-12-14T23:24:05.606Z,99007.90
2023-12-14T23:26:33.294Z,99007.16
2023-12-14T23:29:03.452Z,99010.73
2023-12-14T23:31:30.970Z,99008.90
2023-12-14T23:33:58.524Z,99009.80
2023-12-14T23:36:26.157Z,99018.23
2023-12-14T23:38:53.725Z,99025.45
2023-12-14T23:41:21.334Z,99030.84
2023-12-14T23:43:49.354Z,99038.88
2023-12-14T23:46:17.037Z,99042.81
2023-12-14T23:48:44.825Z,99048.92
2023-12-14T23:51:12.587Z,99048.89
2023-12-14T23:53:40.215Z,99052.62
2023-12-14T23:56:07.757Z,99059.79
2023-12-14T23:58:35.433Z,99060.88
